Time;durP1;ratioP1;P1;durP2;ratioP2;P2;SDS_P1;SDS_P2;PMS_P1;PMS_P2;Temp;Humidity;BMP_temperature;BMP_pressure;BME280_temperature;BME280_humidity;BME280_pressure;Samples;Min_cycle;Max_cycle;Signal;HPM_P1;HPM_P2
2021/08/07 00:02:23;;;;;;;3.20;1.60;;;16.60;99.90;;;;;;5092191;28;20204;-57
2021/08/07 00:04:49;;;;;;;2.33;1.47;;;16.50;99.90;;;;;;5092002;28;20277;-56
2021/08/07 00:07:16;;;;;;;4.50;1.80;;;16.50;99.90;;;;;;5092336;28;20634;-56
2021/08/07 00:09:43;;;;;;;2.03;1.50;;;16.50;99.90;;;;;;5092074;28;20216;-56
2021/08/07 00:12:09;;;;;;;2.27;1.40;;;16.50;99.90;;;;;;5092156;28;20204;-58
2021/08/07 00:14:36;;;;;;;3.45;1.33;;;16.50;99.90;;;;;;5092148;28;20261;-56
2021/08/07 00:17:04;;;;;;;3.43;1.40;;;16.50;99.90;;;;;;5091890;28;20217;-56
2021/08/07 00:19:31;;;;;;;2.07;1.33;;;16.40;99.90;;;;;;5091992;28;20216;-56
2021/08/07 00:21:58;;;;;;;2.77;1.50;;;16.30;99.90;;;;;;5092528;28;20208;-56
2021/08/07 00:24:24;;;;;;;4.77;1.37;;;16.30;99.90;;;;;;5091887;28;20748;-58
2021/08/07 00:26:51;;;;;;;4.87;1.33;;;16.30;99.90;;;;;;5091747;28;20232;-56
2021/08/07 00:29:18;;;;;;;5.00;1.60;;;16.30;99.90;;;;;;5091882;28;20205;-57
2021/08/07 00:31:44;;;;;;;2.60;1.43;;;16.20;99.90;;;;;;5092044;28;20265;-56
2021/08/07 00:34:12;;;;;;;5.20;1.73;;;16.20;99.90;;;;;;5091865;28;20200;-56
2021/08/07 00:36:39;;;;;;;4.15;1.58;;;16.20;99.90;;;;;;5091829;28;20210;-56
2021/08/07 00:39:06;;;;;;;3.63;1.57;;;16.00;99.90;;;;;;5091754;28;20201;-56
2021/08/07 00:41:33;;;;;;;2.73;1.47;;;15.90;99.90;;;;;;5091864;28;20212;-56
2021/08/07 00:43:59;;;;;;;3.60;1.30;;;16.00;99.90;;;;;;5091674;28;20210;-56
2021/08/07 00:46:26;;;;;;;4.43;1.60;;;16.10;99.90;;;;;;5091634;28;20207;-57
2021/08/07 00:48:53;;;;;;;3.17;1.53;;;16.10;99.90;;;;;;5091532;28;20227;-56
2021/08/07 00:51:21;;;;;;;3.63;1.40;;;16.10;99.90;;;;;;5091862;28;20216;-55
2021/08/07 00:53:48;;;;;;;2.73;1.60;;;16.10;99.90;;;;;;5091417;28;20681;-55
2021/08/07 00:56:14;;;;;;;5.93;1.70;;;16.10;99.90;;;;;;5091770;28;20212;-57
2021/08/07 00:58:41;;;;;;;3.90;1.67;;;16.20;99.90;;;;;;5091263;28;20220;-56
2021/08/07 01:01:12;;;;;;;3.03;1.10;;;16.20;99.90;;;;;;5091360;28;20672;-55
2021/08/07 01:03:45;;;;;;;4.60;1.70;;;16.20;99.90;;;;;;5091311;28;20668;-56
2021/08/07 01:06:21;;;;;;;6.13;1.70;;;16.20;99.90;;;;;;5091738;28;20261;-56
2021/08/07 01:08:58;;;;;;;2.50;1.50;;;16.20;99.90;;;;;;5091347;28;20231;-55
2021/08/07 01:11:33;;;;;;;3.20;1.50;;;16.30;99.90;;;;;;5091369;28;20310;-56
2021/08/07 01:14:05;;;;;;;4.20;1.50;;;16.40;99.90;;;;;;5091351;28;20204;-55
2021/08/07 01:16:35;;;;;;;4.25;1.58;;;16.40;99.90;;;;;;5091633;28;20211;-55
2021/08/07 01:19:02;;;;;;;2.80;1.60;;;16.60;99.90;;;;;;5091552;28;20204;-56
2021/08/07 01:21:35;;;;;;;3.67;1.40;;;16.60;99.90;;;;;;5091056;28;20676;-57
2021/08/07 01:24:10;;;;;;;5.13;1.48;;;16.60;99.90;;;;;;5090920;28;20265;-56
2021/08/07 01:26:48;;;;;;;2.25;1.42;;;16.60;99.90;;;;;;5090598;28;20639;-56
2021/08/07 01:29:17;;;;;;;3.77;2.00;;;16.50;99.90;;;;;;5090903;28;20223;-57
2021/08/07 01:31:45;;;;;;;1.55;1.27;;;16.50;99.90;;;;;;5090946;28;20606;-55
2021/08/07 01:34:13;;;;;;;2.58;1.67;;;16.40;99.90;;;;;;5090754;28;20214;-55
2021/08/07 01:36:40;;;;;;;7.03;1.50;;;16.40;99.90;;;;;;5090934;28;20208;-58
2021/08/07 01:39:08;;;;;;;5.33;1.40;;;16.40;99.90;;;;;;5090854;28;20200;-55
2021/08/07 01:41:35;;;;;;;7.93;1.73;;;16.30;99.90;;;;;;5091028;28;20257;-55
2021/08/07 01:44:01;;;;;;;6.78;1.90;;;16.20;99.90;;;;;;5090721;28;20663;-56
2021/08/07 01:46:34;;;;;;;3.50;1.50;;;16.20;99.90;;;;;;5090802;28;20708;-57
2021/08/07 01:49:09;;;;;;;2.40;1.50;;;16.20;99.90;;;;;;5090458;28;20228;-55
2021/08/07 01:51:42;;;;;;;2.67;1.40;;;16.20;99.90;;;;;;5090969;28;20261;-57
2021/08/07 01:54:10;;;;;;;3.57;1.50;;;16.20;99.90;;;;;;5090839;28;20208;-57
2021/08/07 01:56:44;;;;;;;1.92;1.30;;;16.20;99.90;;;;;;5090491;28;20628;-57
2021/08/07 01:59:13;;;;;;;3.00;1.63;;;16.20;99.90;;;;;;5090453;28;20235;-56
2021/08/07 02:01:42;;;;;;;3.60;1.63;;;16.30;99.90;;;;;;5090790;28;20676;-56
2021/08/07 02:04:10;;;;;;;2.87;1.47;;;16.30;99.90;;;;;;5090605;28;20211;-56
2021/08/07 02:06:38;;;;;;;4.17;1.60;;;16.40;99.90;;;;;;5090642;28;20208;-55
2021/08/07 02:09:05;;;;;;;2.83;1.33;;;16.40;99.90;;;;;;5090399;28;20234;-56
2021/08/07 02:11:34;;;;;;;1.77;1.05;;;16.40;99.90;;;;;;5090679;28;20212;-58
2021/08/07 02:14:02;;;;;;;2.57;1.47;;;16.50;99.90;;;;;;5090631;28;20234;-55
2021/08/07 02:16:30;;;;;;;2.88;1.55;;;16.60;99.90;;;;;;5090669;28;20207;-56
2021/08/07 02:19:01;;;;;;;4.00;1.75;;;16.70;99.90;;;;;;5090612;28;20230;-57
2021/08/07 02:21:28;;;;;;;3.38;1.52;;;16.70;99.90;;;;;;5090782;28;20238;-55
2021/08/07 02:23:54;;;;;;;3.33;1.70;;;16.70;99.90;;;;;;5090405;28;20207;-56
2021/08/07 02:26:23;;;;;;;2.42;1.45;;;16.70;99.90;;;;;;5090477;28;20211;-55
2021/08/07 02:28:51;;;;;;;4.63;1.70;;;16.70;99.90;;;;;;5090318;28;20228;-56
2021/08/07 02:31:19;;;;;;;3.53;1.50;;;16.80;99.90;;;;;;5090602;28;20208;-57
2021/08/07 02:33:46;;;;;;;2.30;1.50;;;16.90;99.90;;;;;;5090740;28;20250;-56
2021/08/07 02:36:16;;;;;;;2.83;1.50;;;17.00;99.90;;;;;;5090354;28;20266;-56
2021/08/07 02:38:43;;;;;;;4.93;1.63;;;17.00;99.90;;;;;;5092040;28;20609;-56
2021/08/07 02:41:12;;;;;;;3.20;1.33;;;16.90;99.90;;;;;;5094199;28;20473;-55
2021/08/07 02:43:39;;;;;;;3.07;1.63;;;17.00;99.90;;;;;;5094132;28;20200;-56
2021/08/07 02:46:07;;;;;;;5.90;1.93;;;17.10;99.90;;;;;;5094235;28;20420;-55
2021/08/07 02:48:34;;;;;;;5.20;1.53;;;17.10;99.90;;;;;;5093737;28;20273;-55
2021/08/07 02:51:02;;;;;;;3.57;1.63;;;17.10;99.90;;;;;;5093966;28;20204;-57
2021/08/07 02:53:32;;;;;;;3.75;1.40;;;17.20;99.90;;;;;;5093791;28;20215;-56
2021/08/07 02:55:59;;;;;;;4.03;1.50;;;17.30;99.90;;;;;;5094136;28;20253;-56
2021/08/07 02:58:26;;;;;;;2.83;1.50;;;17.30;99.90;;;;;;5093810;28;20569;-56
2021/08/07 03:00:53;;;;;;;4.57;1.77;;;17.30;99.90;;;;;;5093738;28;20215;-56
2021/08/07 03:03:19;;;;;;;4.03;1.60;;;17.30;99.90;;;;;;5093904;28;20204;-57
2021/08/07 03:05:46;;;;;;;5.95;1.65;;;17.30;99.90;;;;;;5093466;28;20204;-56
2021/08/07 03:08:13;;;;;;;3.88;1.67;;;17.30;99.90;;;;;;5093546;28;20235;-56
2021/08/07 03:10:41;;;;;;;4.05;1.50;;;17.30;99.90;;;;;;5093754;28;20204;-56
2021/08/07 03:13:09;;;;;;;3.05;1.75;;;17.30;99.90;;;;;;5093629;28;20580;-56
2021/08/07 03:15:36;;;;;;;3.83;1.40;;;17.30;99.90;;;;;;5093392;28;20240;-57
2021/08/07 03:18:04;;;;;;;3.45;1.70;;;17.40;99.90;;;;;;5093369;28;20232;-56
2021/08/07 03:20:33;;;;;;;3.17;1.65;;;17.30;99.90;;;;;;5093187;28;20214;-56
2021/08/07 03:23:01;;;;;;;3.90;1.83;;;17.30;99.90;;;;;;5093625;28;20204;-56
2021/08/07 03:25:28;;;;;;;3.75;1.70;;;17.20;99.90;;;;;;5093336;28;20208;-56
2021/08/07 03:27:57;;;;;;;3.28;1.92;;;17.20;99.90;;;;;;5107248;22;20285;-60
2021/08/07 03:30:25;;;;;;;3.43;1.67;;;17.20;99.90;;;;;;5093762;28;20214;-60
2021/08/07 03:32:51;;;;;;;3.35;1.70;;;17.10;99.90;;;;;;5093203;28;20212;-59
2021/08/07 03:35:18;;;;;;;2.88;1.60;;;17.00;99.90;;;;;;5093069;28;20242;-60
2021/08/07 03:37:45;;;;;;;4.80;1.80;;;16.90;99.90;;;;;;5093050;28;20293;-59
2021/08/07 03:40:13;;;;;;;5.23;2.17;;;16.80;99.90;;;;;;5093254;28;20266;-60
2021/08/07 03:42:40;;;;;;;3.20;1.80;;;16.80;99.90;;;;;;5093203;28;20204;-60
2021/08/07 03:45:10;;;;;;;3.93;1.57;;;16.70;99.90;;;;;;5093055;28;20243;-60
2021/08/07 03:47:48;;;;;;;4.87;1.60;;;16.60;99.90;;;;;;5092730;28;20256;-60
2021/08/07 03:50:14;;;;;;;6.45;2.10;;;16.50;99.90;;;;;;5092523;28;20212;-59
2021/08/07 03:52:41;;;;;;;2.33;1.33;;;16.40;99.90;;;;;;5093354;28;20204;-60
2021/08/07 03:55:09;;;;;;;3.57;1.80;;;16.40;99.90;;;;;;5092849;28;20204;-60
2021/08/07 03:57:51;;;;;;;2.90;1.55;;;16.30;99.90;;;;;;5092656;28;20646;-59
2021/08/07 04:00:21;;;;;;;3.43;1.50;;;16.20;99.90;;;;;;5091294;28;20212;-59
2021/08/07 04:02:48;;;;;;;3.07;1.50;;;16.10;99.90;;;;;;5092758;28;20200;-59
2021/08/07 04:05:14;;;;;;;3.13;1.60;;;16.20;99.90;;;;;;5092722;28;20204;-59
2021/08/07 04:07:41;;;;;;;6.03;1.77;;;16.10;99.90;;;;;;5092497;28;20646;-59
2021/08/07 04:10:09;;;;;;;6.50;1.70;;;16.20;99.90;;;;;;5092241;28;20647;-59
2021/08/07 04:12:36;;;;;;;2.03;1.30;;;16.20;99.90;;;;;;5092184;28;20234;-59
2021/08/07 04:15:03;;;;;;;3.10;1.47;;;16.20;99.90;;;;;;5092386;28;20212;-59
2021/08/07 04:17:31;;;;;;;2.60;1.33;;;16.20;99.90;;;;;;5092428;28;20228;-59
2021/08/07 04:19:58;;;;;;;4.37;1.70;;;16.10;99.90;;;;;;5092280;28;20204;-59
2021/08/07 04:22:25;;;;;;;3.20;1.73;;;16.10;99.90;;;;;;5092298;28;20230;-59
2021/08/07 04:24:52;;;;;;;4.10;1.50;;;16.10;99.90;;;;;;5092050;28;20215;-59
2021/08/07 04:27:20;;;;;;;3.33;1.50;;;16.10;99.90;;;;;;5091915;28;20231;-59
2021/08/07 04:29:47;;;;;;;4.47;1.70;;;16.20;99.90;;;;;;5092045;28;20276;-59
2021/08/07 04:32:13;;;;;;;5.60;1.93;;;16.20;99.90;;;;;;5092417;28;20218;-59
2021/08/07 04:34:42;;;;;;;2.87;1.80;;;16.20;99.90;;;;;;5091999;28;20196;-59
2021/08/07 04:37:08;;;;;;;4.90;1.90;;;16.30;99.90;;;;;;5091813;28;20659;-59
2021/08/07 04:39:35;;;;;;;4.90;2.07;;;16.40;99.90;;;;;;5092293;28;20196;-59
2021/08/07 04:42:02;;;;;;;5.00;1.80;;;16.70;99.90;;;;;;5091497;28;20204;-59
2021/08/07 04:44:28;;;;;;;4.50;1.60;;;16.80;99.90;;;;;;5091698;28;20233;-59
2021/08/07 04:46:55;;;;;;;3.00;1.50;;;17.00;99.90;;;;;;5091883;28;20200;-59
2021/08/07 04:49:22;;;;;;;4.57;1.43;;;16.90;99.90;;;;;;5091452;28;20224;-59
2021/08/07 04:51:50;;;;;;;5.23;1.73;;;16.90;99.90;;;;;;5091691;28;20203;-59
2021/08/07 04:54:17;;;;;;;3.50;1.57;;;16.90;99.90;;;;;;5091432;28;20695;-59
2021/08/07 04:56:43;;;;;;;4.50;1.73;;;16.80;99.90;;;;;;5091872;28;20204;-59
2021/08/07 04:59:10;;;;;;;1.70;1.50;;;16.80;99.90;;;;;;5091783;28;20255;-59
2021/08/07 05:01:37;;;;;;;3.30;1.43;;;16.90;99.90;;;;;;5091622;28;20215;-59
2021/08/07 05:04:04;;;;;;;4.30;1.90;;;17.10;99.90;;;;;;5091175;28;20208;-59
2021/08/07 05:06:30;;;;;;;4.47;1.67;;;17.10;99.90;;;;;;5091174;28;20227;-59
2021/08/07 05:08:58;;;;;;;3.40;1.80;;;17.30;99.90;;;;;;5090811;28;20223;-59
2021/08/07 05:11:25;;;;;;;3.22;1.52;;;17.40;99.90;;;;;;5091484;28;20204;-59
2021/08/07 05:13:52;;;;;;;6.28;1.50;;;17.70;99.90;;;;;;5091031;28;20212;-59
2021/08/07 05:16:18;;;;;;;5.85;2.00;;;17.90;99.90;;;;;;5091281;28;20703;-59
2021/08/07 05:18:45;;;;;;;2.20;1.63;;;18.20;99.90;;;;;;5091009;28;20266;-59
2021/08/07 05:21:12;;;;;;;1.90;1.42;;;18.40;99.90;;;;;;5091055;28;20207;-61
2021/08/07 05:23:38;;;;;;;2.53;1.50;;;18.60;99.90;;;;;;5091401;28;20207;-60
2021/08/07 05:26:07;;;;;;;2.53;1.48;;;18.60;99.90;;;;;;5091120;28;20261;-59
2021/08/07 05:28:34;;;;;;;3.63;1.38;;;18.60;99.90;;;;;;5090567;28;20387;-60
2021/08/07 05:31:01;;;;;;;3.72;1.40;;;18.50;99.90;;;;;;5091149;28;20253;-59
2021/08/07 05:33:27;;;;;;;2.72;1.60;;;18.50;99.90;;;;;;5090945;28;20581;-60
2021/08/07 05:35:54;;;;;;;2.15;1.50;;;18.60;99.90;;;;;;5090870;28;20212;-60
2021/08/07 05:38:21;;;;;;;2.53;1.42;;;18.60;99.90;;;;;;5090883;28;20235;-60
2021/08/07 05:40:47;;;;;;;4.65;1.40;;;18.80;99.90;;;;;;5091105;28;20200;-60
2021/08/07 05:43:15;;;;;;;4.63;1.83;;;19.00;99.90;;;;;;5090927;28;20200;-60
2021/08/07 05:45:42;;;;;;;2.83;1.60;;;19.30;99.90;;;;;;5091084;28;20211;-59
2021/08/07 05:48:09;;;;;;;2.72;1.58;;;19.50;99.90;;;;;;5090626;28;20224;-60
2021/08/07 05:50:35;;;;;;;6.93;1.75;;;19.70;99.90;;;;;;5090422;28;20231;-60
2021/08/07 05:53:02;;;;;;;2.67;1.50;;;19.90;99.90;;;;;;5091205;28;20215;-60
2021/08/07 05:55:29;;;;;;;2.67;1.80;;;20.00;99.90;;;;;;5090621;28;20215;-60
2021/08/07 05:57:55;;;;;;;3.95;1.70;;;20.00;99.90;;;;;;5090554;28;20230;-60
2021/08/07 06:00:23;;;;;;;3.95;1.67;;;20.00;99.90;;;;;;5090827;28;20211;-61
2021/08/07 06:02:50;;;;;;;4.28;1.52;;;20.00;99.90;;;;;;5090509;28;20729;-60
2021/08/07 06:05:17;;;;;;;1.40;1.25;;;20.70;99.90;;;;;;5090821;28;20231;-60
2021/08/07 06:07:44;;;;;;;3.85;1.40;;;22.60;99.90;;;;;;5090709;28;20228;-60
2021/08/07 06:10:10;;;;;;;2.65;1.33;;;24.70;99.90;;;;;;5090979;28;20228;-61
2021/08/07 06:12:37;;;;;;;4.07;1.67;;;25.90;99.90;;;;;;5090903;28;20208;-60
2021/08/07 06:15:05;;;;;;;3.70;1.58;;;26.50;99.90;;;;;;5094099;28;20261;-61
2021/08/07 06:17:33;;;;;;;8.07;1.83;;;26.30;99.90;;;;;;5094547;28;20228;-61
2021/08/07 06:20:00;;;;;;;5.55;2.00;;;25.90;99.90;;;;;;5095038;28;20392;-61
2021/08/07 06:22:26;;;;;;;3.53;1.50;;;25.40;99.90;;;;;;5094645;28;20208;-60
2021/08/07 06:24:53;;;;;;;3.38;2.08;;;24.80;99.90;;;;;;5094612;28;20241;-61
2021/08/07 06:27:20;;;;;;;2.90;1.50;;;24.40;99.90;;;;;;5094342;28;20235;-60
2021/08/07 06:29:46;;;;;;;3.67;1.38;;;24.10;99.90;;;;;;5094261;28;20223;-61
2021/08/07 06:32:13;;;;;;;3.75;1.40;;;23.80;99.90;;;;;;5094747;28;20273;-60
2021/08/07 06:34:41;;;;;;;5.03;1.60;;;23.60;99.90;;;;;;5094724;28;20664;-60
2021/08/07 06:37:08;;;;;;;3.35;1.20;;;23.30;99.90;;;;;;5094777;28;20565;-60
2021/08/07 06:39:34;;;;;;;1.90;1.05;;;23.20;99.90;;;;;;5096738;28;20196;-60
2021/08/07 06:42:01;;;;;;;5.10;1.10;;;23.80;99.90;;;;;;5094991;28;20204;-60
2021/08/07 06:44:28;;;;;;;3.08;1.10;;;25.60;99.90;;;;;;5094103;28;20675;-60
2021/08/07 06:46:54;;;;;;;2.13;1.10;;;27.70;99.90;;;;;;5094035;28;20209;-60
2021/08/07 06:49:21;;;;;;;3.08;1.13;;;29.10;99.90;;;;;;5094766;28;20228;-60
2021/08/07 06:51:49;;;;;;;2.72;1.48;;;29.80;98.90;;;;;;5094208;28;20584;-60
2021/08/07 06:54:16;;;;;;;2.95;2.28;;;30.00;97.40;;;;;;5094501;28;20613;-61
2021/08/07 06:56:47;;;;;;;5.68;2.22;;;30.40;96.30;;;;;;5094148;28;20685;-60
2021/08/07 06:59:14;;;;;;;3.22;1.02;;;31.20;93.70;;;;;;5094079;28;20306;-61
2021/08/07 07:01:43;;;;;;;3.55;0.88;;;32.20;90.70;;;;;;5093990;28;20238;-61
2021/08/07 07:04:10;;;;;;;1.98;1.17;;;32.90;85.80;;;;;;5093814;28;20208;-61
2021/08/07 07:06:36;;;;;;;4.07;1.00;;;33.50;79.70;;;;;;5093963;28;20208;-61
2021/08/07 07:09:04;;;;;;;3.20;0.95;;;34.30;76.70;;;;;;5093712;28;20228;-63
2021/08/07 07:11:31;;;;;;;2.50;1.27;;;35.30;70.20;;;;;;5093826;28;20208;-61
2021/08/07 07:13:58;;;;;;;1.58;1.10;;;35.60;68.20;;;;;;5093192;28;20546;-61
2021/08/07 07:16:24;;;;;;;3.35;1.10;;;35.70;65.80;;;;;;5093903;28;20680;-61
2021/08/07 07:18:51;;;;;;;3.50;1.40;;;35.40;65.80;;;;;;5093560;28;20224;-61
2021/08/07 07:21:18;;;;;;;4.15;1.15;;;35.60;65.10;;;;;;5093548;28;20586;-61
2021/08/07 07:23:44;;;;;;;3.50;1.50;;;36.70;62.50;;;;;;5093293;28;20212;-61
2021/08/07 07:26:12;;;;;;;2.70;1.27;;;37.50;58.60;;;;;;5091805;28;20208;-61
2021/08/07 07:28:39;;;;;;;3.90;1.27;;;37.70;58.40;;;;;;5093291;28;20243;-61
2021/08/07 07:31:06;;;;;;;1.77;1.00;;;37.50;57.40;;;;;;5093382;28;20228;-60
2021/08/07 07:33:32;;;;;;;5.47;1.33;;;37.20;57.60;;;;;;5092965;28;20555;-59
2021/08/07 07:35:59;;;;;;;2.33;1.08;;;36.40;58.70;;;;;;5093242;28;20692;-61
2021/08/07 07:38:26;;;;;;;3.70;1.00;;;35.70;59.40;;;;;;5093252;28;20224;-60
2021/08/07 07:40:54;;;;;;;5.05;1.40;;;34.70;60.70;;;;;;5093183;28;20296;-60
2021/08/07 07:43:22;;;;;;;3.58;1.23;;;33.40;61.80;;;;;;5093570;28;20212;-60
2021/08/07 07:45:48;;;;;;;3.70;1.55;;;32.00;65.50;;;;;;5093525;28;20207;-59
2021/08/07 07:48:15;;;;;;;3.20;1.25;;;30.90;68.80;;;;;;5093352;28;20277;-60
2021/08/07 07:50:42;;;;;;;1.98;1.38;;;29.80;72.30;;;;;;5092863;28;20225;-59
2021/08/07 07:53:08;;;;;;;2.40;1.40;;;29.00;75.40;;;;;;5093380;28;20204;-61
2021/08/07 07:55:35;;;;;;;1.95;1.00;;;28.40;77.30;;;;;;5092494;28;20200;-59
2021/08/07 07:58:02;;;;;;;1.75;1.33;;;28.00;78.30;;;;;;5092610;28;20704;-59
2021/08/07 08:00:30;;;;;;;3.20;1.40;;;27.80;79.70;;;;;;5092826;28;20257;-59
2021/08/07 08:02:57;;;;;;;2.70;1.27;;;28.00;79.20;;;;;;5092716;28;20672;-59
2021/08/07 08:05:24;;;;;;;3.28;1.30;;;28.10;78.80;;;;;;5092513;28;20574;-60
2021/08/07 08:07:51;;;;;;;2.53;1.25;;;28.10;79.20;;;;;;5092606;28;20715;-60
2021/08/07 08:10:18;;;;;;;2.47;1.20;;;28.10;79.70;;;;;;5092974;28;20227;-60
2021/08/07 08:12:45;;;;;;;2.90;1.30;;;28.00;79.80;;;;;;5092670;28;20207;-60
2021/08/07 08:15:13;;;;;;;3.03;1.23;;;28.10;80.60;;;;;;5092326;28;20272;-60
2021/08/07 08:17:42;;;;;;;3.25;1.88;;;28.60;80.80;;;;;;5092340;28;20274;-60
2021/08/07 08:20:10;;;;;;;3.42;1.42;;;29.50;78.00;;;;;;5092358;28;20664;-60
2021/08/07 08:22:37;;;;;;;4.38;1.15;;;30.30;74.70;;;;;;5092446;28;20208;-60
2021/08/07 08:25:09;;;;;;;2.80;1.33;;;30.80;73.10;;;;;;5092346;28;20204;-60
2021/08/07 08:27:36;;;;;;;2.13;1.05;;;31.30;71.80;;;;;;5092352;28;20232;-60
2021/08/07 08:30:04;;;;;;;4.65;1.50;;;31.30;71.50;;;;;;5092166;28;20224;-60
2021/08/07 08:32:31;;;;;;;2.72;1.33;;;31.10;70.90;;;;;;5092225;28;20208;-60
2021/08/07 08:34:59;;;;;;;2.58;1.50;;;30.80;72.20;;;;;;5092023;28;20233;-60
2021/08/07 08:37:26;;;;;;;2.58;1.15;;;30.60;73.00;;;;;;5091596;28;20243;-60
2021/08/07 08:39:52;;;;;;;2.58;1.35;;;30.60;72.90;;;;;;5092390;28;20204;-61
2021/08/07 08:42:20;;;;;;;3.83;1.25;;;30.60;72.90;;;;;;5092519;28;20212;-61
2021/08/07 08:44:47;;;;;;;3.58;1.30;;;30.60;72.30;;;;;;5092016;28;20748;-61
2021/08/07 08:47:19;;;;;;;3.42;1.20;;;30.60;72.70;;;;;;5092033;28;20240;-61
2021/08/07 08:49:46;;;;;;;2.88;1.17;;;30.50;72.90;;;;;;5092108;28;20220;-61
2021/08/07 08:52:15;;;;;;;2.50;1.10;;;30.20;72.60;;;;;;5092115;28;20204;-61
2021/08/07 08:54:42;;;;;;;4.68;1.20;;;29.90;73.80;;;;;;5091906;28;20287;-61
2021/08/07 08:57:09;;;;;;;2.80;1.15;;;29.60;75.30;;;;;;5091921;28;20204;-61
2021/08/07 08:59:36;;;;;;;2.53;1.20;;;29.40;75.30;;;;;;5092203;28;20207;-61
2021/08/07 09:02:02;;;;;;;2.25;1.15;;;29.10;75.90;;;;;;5091802;28;20261;-60
2021/08/07 09:04:29;;;;;;;2.28;1.05;;;28.90;74.80;;;;;;5092184;28;20212;-60
2021/08/07 09:06:56;;;;;;;2.63;1.15;;;28.70;76.00;;;;;;5091994;28;20211;-61
2021/08/07 09:09:37;;;;;;;1.98;1.20;;;28.60;75.50;;;;;;5091720;28;20652;-61
2021/08/07 09:12:05;;;;;;;2.22;1.30;;;28.60;76.00;;;;;;5092020;28;20196;-61
2021/08/07 09:14:33;;;;;;;2.20;1.17;;;28.60;76.60;;;;;;5091238;28;20581;-61
2021/08/07 09:17:22;;;;;;;3.88;1.50;;;28.60;77.30;;;;;;5091344;28;20214;-61
2021/08/07 09:19:51;;;;;;;2.63;1.00;;;28.50;75.80;;;;;;5087989;28;20204;-60
2021/08/07 09:22:20;;;;;;;2.58;1.60;;;28.40;75.40;;;;;;5091256;28;20208;-60
2021/08/07 09:25:08;;;;;;;1.95;1.17;;;28.30;75.80;;;;;;5091221;28;20208;-61
2021/08/07 09:27:37;;;;;;;2.20;1.23;;;28.20;75.60;;;;;;5105788;22;20653;-56
2021/08/07 09:30:21;;;;;;;2.47;1.55;;;28.20;76.00;;;;;;5091246;28;20310;-56
2021/08/07 09:32:49;;;;;;;5.03;1.10;;;28.10;76.60;;;;;;5091404;28;20204;-56
2021/08/07 09:35:19;;;;;;;2.05;1.20;;;27.90;77.30;;;;;;5091035;28;20208;-57
2021/08/07 09:37:46;;;;;;;3.30;1.25;;;27.90;78.10;;;;;;5090684;28;20224;-56
2021/08/07 09:40:14;;;;;;;2.25;1.23;;;28.30;77.10;;;;;;5091361;28;20200;-57
2021/08/07 09:42:52;;;;;;;3.47;1.45;;;28.50;76.20;;;;;;5091073;28;20203;-57
2021/08/07 09:45:23;;;;;;;2.65;1.70;;;28.80;76.60;;;;;;5091112;28;20212;-56
2021/08/07 09:47:57;;;;;;;3.83;1.50;;;29.10;75.90;;;;;;5090220;28;20302;-56
2021/08/07 09:50:25;;;;;;;4.72;1.30;;;29.50;74.50;;;;;;5091080;28;20301;-57
2021/08/07 09:52:52;;;;;;;5.13;1.60;;;29.50;74.30;;;;;;5091135;28;20208;-58
2021/08/07 09:55:20;;;;;;;4.57;1.77;;;29.40;76.20;;;;;;5090675;28;20265;-56
2021/08/07 09:57:59;;;;;;;3.60;1.17;;;29.20;76.90;;;;;;5090803;28;20253;-56
2021/08/07 10:00:35;;;;;;;3.13;1.58;;;29.00;77.20;;;;;;5090825;28;20227;-56
2021/08/07 10:03:14;;;;;;;4.85;1.23;;;28.90;77.80;;;;;;5090983;28;20211;-62
2021/08/07 10:05:41;;;;;;;3.35;1.13;;;28.70;77.30;;;;;;5090719;28;20208;-57
2021/08/07 10:08:10;;;;;;;5.75;1.70;;;28.60;78.60;;;;;;5090694;28;20231;-58
2021/08/07 10:10:39;;;;;;;5.35;2.00;;;28.40;81.00;;;;;;5090554;28;20305;-58
2021/08/07 10:13:06;;;;;;;2.45;1.40;;;28.20;82.90;;;;;;5090567;28;20211;-57
2021/08/07 10:15:33;;;;;;;2.70;1.38;;;27.90;84.80;;;;;;5090814;28;20212;-57
2021/08/07 10:18:01;;;;;;;2.90;1.55;;;27.60;88.10;;;;;;5090532;28;20773;-57
2021/08/07 10:20:28;;;;;;;4.82;1.63;;;27.40;90.30;;;;;;5091157;28;20629;-57
2021/08/07 10:22:56;;;;;;;4.60;1.65;;;27.10;91.40;;;;;;5090838;28;20270;-58
2021/08/07 10:25:24;;;;;;;6.75;2.17;;;26.90;92.30;;;;;;5090360;28;20291;-58
2021/08/07 10:27:57;;;;;;;4.35;1.90;;;26.50;92.80;;;;;;5090390;28;20271;-57
2021/08/07 10:30:25;;;;;;;5.97;1.90;;;26.20;94.40;;;;;;5090738;28;20228;-57
2021/08/07 10:32:55;;;;;;;5.32;1.85;;;25.90;95.30;;;;;;5090742;28;20200;-57
2021/08/07 10:35:24;;;;;;;4.88;1.80;;;25.60;96.40;;;;;;5091523;28;20239;-57
2021/08/07 10:37:51;;;;;;;3.42;1.65;;;25.40;98.10;;;;;;5090127;28;20228;-58
2021/08/07 10:40:18;;;;;;;6.28;1.90;;;25.20;99.40;;;;;;5090412;28;20203;-57
2021/08/07 10:42:46;;;;;;;5.47;1.85;;;25.00;99.90;;;;;;5090692;28;20216;-57
2021/08/07 10:45:15;;;;;;;4.05;1.80;;;24.90;99.90;;;;;;5090470;28;20230;-57
2021/08/07 10:47:44;;;;;;;4.43;2.05;;;24.70;99.90;;;;;;5090495;28;20224;-57
2021/08/07 10:50:34;;;;;;;5.35;1.92;;;24.60;99.90;;;;;;5090169;28;20201;-57
2021/08/07 10:53:03;;;;;;;3.78;1.85;;;24.50;99.90;;;;;;5090438;28;20287;-58
2021/08/07 10:55:48;;;;;;;4.32;2.17;;;24.40;99.90;;;;;;5090336;28;20215;-58
2021/08/07 10:58:38;;;;;;;4.50;2.55;;;24.30;99.90;;;;;;5090052;28;20223;-58
2021/08/07 11:01:32;;;;;;;3.20;2.03;;;24.20;99.90;;;;;;5093297;28;20563;-58
2021/08/07 11:04:08;;;;;;;3.80;2.03;;;24.10;99.90;;;;;;5093843;28;20281;-59
2021/08/07 11:06:59;;;;;;;3.05;1.77;;;23.80;99.90;;;;;;5093648;28;20679;-57
2021/08/07 11:09:29;;;;;;;3.67;1.90;;;23.70;99.90;;;;;;5093412;28;20220;-57
2021/08/07 11:12:20;;;;;;;3.25;1.70;;;23.50;99.90;;;;;;5093758;28;20290;-57
2021/08/07 11:14:49;;;;;;;2.83;2.10;;;23.40;99.90;;;;;;5093253;28;20216;-57
2021/08/07 11:17:36;;;;;;;4.82;2.00;;;23.30;99.90;;;;;;5093571;28;20258;-57
2021/08/07 11:20:09;;;;;;;4.07;1.98;;;23.30;99.90;;;;;;5093611;28;20215;-58
2021/08/07 11:23:17;;;;;;;3.83;2.40;;;23.20;99.90;;;;;;5093442;28;20208;-57
2021/08/07 11:26:03;;;;;;;5.93;2.70;;;23.20;99.90;;;;;;5093348;28;20204;-56
2021/08/07 11:28:31;;;;;;;3.72;2.00;;;23.10;99.90;;;;;;5093709;28;20256;-56
2021/08/07 11:31:27;;;;;;;3.83;1.90;;;23.00;99.90;;;;;;5093647;28;20228;-59
2021/08/07 11:34:24;;;;;;;1.65;1.52;;;23.00;99.90;;;;;;5093511;28;20205;-58
2021/08/07 11:37:14;;;;;;;3.88;1.63;;;23.00;99.90;;;;;;5093488;28;20246;-58
2021/08/07 11:40:15;;;;;;;5.10;1.80;;;23.00;99.90;;;;;;5093253;28;20229;-59
2021/08/07 11:42:45;;;;;;;3.65;2.83;;;22.80;99.90;;;;;;5093017;28;20207;-58
2021/08/07 11:45:19;;;;;;;3.47;2.08;;;22.70;99.90;;;;;;5093093;28;20208;-59
2021/08/07 11:47:47;;;;;;;10.77;9.15;;;22.60;99.90;;;;;;5092891;28;20707;-59
2021/08/07 11:50:17;;;;;;;2.50;1.77;;;22.40;99.90;;;;;;5093090;28;20623;-59
2021/08/07 11:52:44;;;;;;;4.55;2.10;;;22.40;99.90;;;;;;5093148;28;20257;-59
2021/08/07 11:55:11;;;;;;;4.47;2.10;;;22.30;99.90;;;;;;5092555;28;20298;-58
2021/08/07 11:57:37;;;;;;;7.40;2.17;;;22.30;99.90;;;;;;5092940;28;20668;-59
2021/08/07 12:00:25;;;;;;;4.60;1.88;;;22.40;99.90;;;;;;5092771;28;20208;-58
2021/08/07 12:02:59;;;;;;;3.70;1.85;;;22.30;99.90;;;;;;5092797;28;20204;-59
2021/08/07 12:05:27;;;;;;;4.88;2.25;;;22.30;99.90;;;;;;5092315;28;20211;-59
2021/08/07 12:08:02;;;;;;;3.15;1.90;;;22.40;99.90;;;;;;5092289;28;20228;-58
2021/08/07 12:10:29;;;;;;;5.43;1.90;;;22.50;99.90;;;;;;5092544;28;20203;-59
2021/08/07 12:12:56;;;;;;;4.78;1.63;;;22.60;99.90;;;;;;5092120;28;20204;-58
2021/08/07 12:15:22;;;;;;;3.85;2.50;;;22.80;99.90;;;;;;5092535;28;20208;-58
2021/08/07 12:17:50;;;;;;;4.65;2.15;;;22.90;99.90;;;;;;5092170;28;20285;-59
2021/08/07 12:20:18;;;;;;;3.88;2.17;;;22.90;99.90;;;;;;5092257;28;20367;-59
2021/08/07 12:23:03;;;;;;;4.20;2.10;;;23.00;99.90;;;;;;5092649;28;20201;-58
2021/08/07 12:25:31;;;;;;;3.05;1.70;;;23.10;99.90;;;;;;5092124;28;20686;-58
2021/08/07 12:28:08;;;;;;;4.10;2.17;;;23.20;99.90;;;;;;5091796;28;20591;-59
2021/08/07 12:30:36;;;;;;;5.43;1.80;;;23.30;99.90;;;;;;5092043;28;20631;-58
2021/08/07 12:33:13;;;;;;;2.92;1.92;;;23.40;99.90;;;;;;5092389;28;20663;-58
2021/08/07 12:35:40;;;;;;;2.97;1.60;;;23.50;99.90;;;;;;5091982;28;20204;-59
2021/08/07 12:38:15;;;;;;;1.98;1.48;;;23.50;99.90;;;;;;5091815;28;20311;-58
2021/08/07 12:40:43;;;;;;;6.32;2.08;;;23.60;99.90;;;;;;5091975;28;20200;-59
2021/08/07 12:43:10;;;;;;;1.85;1.50;;;23.60;99.90;;;;;;5092445;28;20204;-59
2021/08/07 12:45:37;;;;;;;2.05;1.58;;;23.50;99.90;;;;;;5091899;28;20200;-58
2021/08/07 12:48:05;;;;;;;1.77;1.48;;;23.40;99.90;;;;;;5091921;28;20231;-59
2021/08/07 12:50:32;;;;;;;3.85;1.77;;;23.30;99.90;;;;;;5091847;28;20205;-59
2021/08/07 12:53:00;;;;;;;2.75;1.48;;;23.20;99.90;;;;;;5091623;28;20232;-58
2021/08/07 12:55:30;;;;;;;2.80;1.52;;;23.20;99.90;;;;;;5091582;28;20204;-58
2021/08/07 12:58:13;;;;;;;3.70;1.90;;;23.20;99.90;;;;;;5091473;28;20281;-59
2021/08/07 13:00:40;;;;;;;5.60;3.15;;;23.10;99.90;;;;;;5091878;28;20253;-59